Weather at Vermilion Regional Airport

Public forecast

Using degrees Fahrenheit for public forecast. Weather courtesy of forecast.io.

Current aviation weather report (METAR) for Vermilion Regional Airport

Retrieved 2021/05/09 00:55 UTC (12 minutes ago):

KDNV 090055Z AUTO 07007KT 10SM SCT065 OVC085 12/03 A2999 RMK AO2 T01210027

Closest aviation forecast (TAF) to Vermilion Regional Airport

Closest forecast is University of Illinois Willard Airport, 32.8 nm (60.7 km) WSW. Retrieved 2021-05-09 00:48 UTC (19 minutes ago):

TAF KCMI 082347Z 0900/0924 15011KT P6SM -RA OVC070 FM090500 09014KT 5SM -SHRA BR VCTS OVC030CB FM090800 09018G26KT 6SM +SHRA BR VCTS OVC008CB FM091200 06017G28KT 5SM -SHRA BR OVC007 FM091500 06014KT 5SM -SHRA BR OVC007 FM091800 03017G26KT P6SM OVC008